Airfield :
LOGIN :

Register | Disclaimer

   EN    FR    IT 

 










Legend :    VFR   Marginal VFR   IFR   Intensive IFR   Very Intensive IFR
Visi :
Ceiling :
>= 8 km
>= 3000ft
5 to 8 km
1000 to 3000 ft
1500m to 5 km
500 to 1000 ft
800 to 1500m
200 to 500 ft
< 800m
< 200 ft
Symbols :   Thunderstorms  Fog  Heavy snow  Heavy precipitations  Wind > 20 kt
SIGMETs :     Misc.  Thunderstorms  Icing  Turbulence  Mountain Waves  Volcanic Ashes







- Airport Elevation : 157 ft
- IATA code : SXF


EDDB - Berlin Schönefeld

CURRENT METAR :
  • 181650Z 13007KT 100V160 CAVOK 28/09 Q1014 NOSIG

EXPIRED METARs :
  • 181620Z 11005KT 070V180 CAVOK 29/09 Q1014 NOSIG
  • 181550Z VRB06KT CAVOK 29/09 Q1014 NOSIG
  • 181520Z 16010KT 120V200 CAVOK 29/08 Q1014 NOSIG
  • 181450Z 13009KT 080V180 CAVOK 29/09 Q1015 NOSIG
  • 181420Z 12008KT 020V160 CAVOK 29/08 Q1015 NOSIG

TAF TAF EDDB
Valid from the 18 at 12:00 until the 19 at 12:00 UTC


181100Z 1812/1912 15011KT CAVOK
PROB30
TEMPO 1812/1814 15015G25KT
BECMG 1817/1819 13006KT
No reported NOTAMs for that airfield.



MET'MAP, your aeronautical weather chart ! - Copyright ORBIFLY December 2007 - Disclaimer

ORBIFLY MET'MAP TEAM :

Programming & Development : Alexandra Zaïnal
Concept & Development : Baudouin d'Aumeries
Co-Development & Prog : Marc-Olivier Méhu
Technical & hardware support : Manuel Goepfert

Contact : metmap@orbifly.com




SOURCES & CREDITS :

   NOAA